Time;durP1;ratioP1;P1;durP2;ratioP2;P2;SDS_P1;SDS_P2;PMS_P1;PMS_P2;Temp;Humidity;BMP_temperature;BMP_pressure;BME280_temperature;BME280_humidity;BME280_pressure;Samples;Min_cycle;Max_cycle;Signal;HPM_P1;HPM_P2
2022/06/02 00:01:56;;;;;;;;;;;;;;;17.39;86.75;101059.52;107434;1250;76323;-69
2022/06/02 00:04:35;;;;;;;;;;;;;;;17.37;86.28;101058.13;107509;1247;64039;-65
2022/06/02 00:07:30;;;;;;;;;;;;;;;17.33;86.47;101058.33;107356;1250;69189;-69
2022/06/02 00:10:07;;;;;;;;;;;;;;;17.28;86.35;101056.81;107485;1247;63570;-66
2022/06/02 00:12:47;;;;;;;;;;;;;;;17.24;84.99;101053.89;107534;1247;59615;-64
2022/06/02 00:15:23;;;;;;;;;;;;;;;17.18;83.84;101061.11;107506;1247;61240;-66
2022/06/02 00:18:19;;;;;;;;;;;;;;;17.10;85.20;101064.20;107451;1250;64399;-65
2022/06/02 00:21:26;;;;;;;;;;;;;;;17.02;86.95;101071.95;107481;1247;72669;-64
2022/06/02 00:24:07;;;;;;;;;;;;;;;16.99;88.59;101073.33;107456;1250;70118;-66
2022/06/02 00:26:45;;;;;;;;;;;;;;;17.00;88.70;101076.59;107515;1250;73925;-67
2022/06/02 00:29:17;;;;;;;;;;;;;;;17.01;87.43;101076.28;107511;1250;61913;-66
2022/06/02 00:31:53;;;;;;;;;;;;;;;17.03;87.87;101081.77;107299;1250;60975;-69
2022/06/02 00:34:40;;;;;;;;;;;;;;;17.02;86.46;101087.81;107411;1247;72920;-69
2022/06/02 00:37:28;;;;;;;;;;;;;;;16.99;85.99;101089.30;107367;1247;71716;-66
2022/06/02 00:39:58;;;;;;;;;;;;;;;16.96;87.30;101091.20;107375;1249;66827;-65
2022/06/02 00:42:38;;;;;;;;;;;;;;;16.93;88.42;101088.61;107447;1247;74313;-65
2022/06/02 00:45:13;;;;;;;;;;;;;;;16.96;88.67;101095.26;107419;1250;61648;-64
2022/06/02 00:47:51;;;;;;;;;;;;;;;16.99;88.26;101095.48;107549;1248;59463;-65
2022/06/02 00:50:58;;;;;;;;;;;;;;;16.96;87.72;101096.11;107484;1250;74831;-65
2022/06/02 00:57:32;;;;;;;;;;;;;;;16.89;87.07;101098.67;107448;1247;69732;-64
2022/06/02 01:00:19;;;;;;;;;;;;;;;16.84;85.90;101098.49;107488;1247;74906;-65
2022/06/02 01:02:47;;;;;;;;;;;;;;;16.75;86.55;101101.60;107486;1250;62639;-65
2022/06/02 01:05:26;;;;;;;;;;;;;;;16.71;86.07;101103.37;107559;1247;59654;-65
2022/06/02 01:08:24;;;;;;;;;;;;;;;16.61;86.26;101101.61;108206;1247;72462;-65
2022/06/02 01:11:00;;;;;;;;;;;;;;;16.55;86.47;101103.21;107658;1247;70403;-67
2022/06/02 01:13:41;;;;;;;;;;;;;;;16.48;86.92;101105.94;108330;1247;68082;-67
2022/06/02 01:16:17;;;;;;;;;;;;;;;16.42;87.39;101107.51;107494;1248;73817;-63
2022/06/02 01:19:19;;;;;;;;;;;;;;;16.39;87.19;101109.95;107211;1248;62551;-64
2022/06/02 01:21:47;;;;;;;;;;;;;;;16.34;88.11;101113.02;107553;1248;62138;-66
2022/06/02 01:24:22;;;;;;;;;;;;;;;16.33;87.58;101113.45;107448;1248;73333;-67
2022/06/02 01:27:18;;;;;;;;;;;;;;;16.25;88.08;101116.67;107448;1248;71722;-65
2022/06/02 01:30:11;;;;;;;;;;;;;;;16.13;88.07;101112.59;107508;1247;69508;-65
2022/06/02 01:32:50;;;;;;;;;;;;;;;16.06;89.10;101109.70;107435;1248;72859;-64
2022/06/02 01:35:42;;;;;;;;;;;;;;;16.05;88.91;101113.35;107346;1247;61118;-67
2022/06/02 01:38:35;;;;;;;;;;;;;;;16.04;88.09;101116.47;107441;1248;60696;-65
2022/06/02 01:41:41;;;;;;;;;;;;;;;16.06;89.38;101118.91;107491;1248;72430;-67
2022/06/02 01:44:34;;;;;;;;;;;;;;;16.06;88.52;101117.79;107430;1247;69853;-66
2022/06/02 01:47:10;;;;;;;;;;;;;;;16.04;88.71;101114.89;107456;1248;69958;-65
2022/06/02 01:50:18;;;;;;;;;;;;;;;16.04;89.75;101114.83;107375;1248;74880;-66
2022/06/02 01:53:08;;;;;;;;;;;;;;;16.13;90.03;101108.77;107510;1247;60934;-68
2022/06/02 01:55:53;;;;;;;;;;;;;;;16.20;89.91;101106.91;107481;1247;59547;-67
2022/06/02 01:58:22;;;;;;;;;;;;;;;16.29;89.57;101105.62;107463;1248;72775;-65
2022/06/02 02:01:29;;;;;;;;;;;;;;;16.32;89.46;101103.51;107455;1248;72869;-63
2022/06/02 02:04:35;;;;;;;;;;;;;;;16.35;89.57;101105.38;107571;1248;68550;-67
2022/06/02 02:07:31;;;;;;;;;;;;;;;16.50;89.32;101112.14;107433;1248;73750;-66
2022/06/02 02:10:37;;;;;;;;;;;;;;;16.52;89.07;101108.98;107422;1248;62450;-64
2022/06/02 02:13:27;;;;;;;;;;;;;;;16.52;88.54;101108.92;107407;1247;61673;-66
2022/06/02 02:16:18;;;;;;;;;;;;;;;16.44;87.58;101112.30;107397;1247;74912;-66
2022/06/02 02:19:06;;;;;;;;;;;;;;;16.34;87.78;101114.94;107427;1248;71847;-66
2022/06/02 02:22:13;;;;;;;;;;;;;;;16.32;88.29;101117.63;107389;1247;69694;-66
2022/06/02 02:25:09;;;;;;;;;;;;;;;16.28;88.39;101116.04;107086;1248;73120;-66
2022/06/02 02:28:03;;;;;;;;;;;;;;;16.24;88.29;101108.48;107231;1248;61867;-66
2022/06/02 02:30:46;;;;;;;;;;;;;;;16.19;88.07;101111.55;107426;1248;60228;-66
2022/06/02 02:33:29;;;;;;;;;;;;;;;16.17;88.55;101114.38;107363;1248;74419;-64
2022/06/02 02:36:32;;;;;;;;;;;;;;;16.10;88.68;101116.58;107340;1249;72305;-64
2022/06/02 02:39:27;;;;;;;;;;;;;;;16.08;88.97;101120.44;107413;1247;69545;-66
2022/06/02 02:42:13;;;;;;;;;;;;;;;16.06;87.97;101123.77;107343;1248;74422;-65
2022/06/02 02:44:57;;;;;;;;;;;;;;;16.06;87.98;101127.88;107320;1247;61471;-65
2022/06/02 02:47:43;;;;;;;;;;;;;;;16.04;87.31;101122.58;107449;1247;59536;-65
2022/06/02 02:50:28;;;;;;;;;;;;;;;16.01;88.50;101120.23;107387;1250;73800;-65
2022/06/02 02:53:19;;;;;;;;;;;;;;;15.99;89.20;101127.38;107283;1247;71382;-64
2022/06/02 02:56:25;;;;;;;;;;;;;;;16.01;88.64;101128.67;107258;1250;68610;-65
2022/06/02 02:58:58;;;;;;;;;;;;;;;15.98;87.96;101125.41;107454;1247;73613;-66
2022/06/02 03:01:32;;;;;;;;;;;;;;;15.91;88.80;101125.98;107403;1247;61883;-64
2022/06/02 03:04:14;;;;;;;;;;;;;;;15.93;88.43;101127.77;107432;1248;58686;-64
2022/06/02 03:06:44;;;;;;;;;;;;;;;16.01;89.09;101126.50;107483;1248;74498;-65
2022/06/02 03:09:14;;;;;;;;;;;;;;;16.10;89.49;101124.29;107194;1250;73119;-64
2022/06/02 03:12:01;;;;;;;;;;;;;;;16.19;88.67;101125.63;107406;1247;69394;-66
2022/06/02 03:14:41;;;;;;;;;;;;;;;16.24;88.29;101129.73;107295;1248;72250;-65
2022/06/02 03:17:41;;;;;;;;;;;;;;;16.30;87.70;101129.95;107362;1247;62081;-65
2022/06/02 03:20:42;;;;;;;;;;;;;;;16.37;87.38;101126.84;107399;1245;60833;-68
2022/06/02 03:23:38;;;;;;;;;;;;;;;16.40;88.09;101121.05;107436;1248;73314;-70
2022/06/02 03:26:49;;;;;;;;;;;;;;;16.53;86.97;101125.87;107432;1248;70798;-72
2022/06/02 03:29:42;;;;;;;;;;;;;;;16.61;86.36;101124.28;107472;1248;70931;-70
2022/06/02 03:32:38;;;;;;;;;;;;;;;16.62;86.40;101129.95;107448;1247;72524;-71
2022/06/02 03:35:13;;;;;;;;;;;;;;;16.61;86.59;101128.70;107437;1247;62650;-69
2022/06/02 03:37:50;;;;;;;;;;;;;;;16.68;86.30;101118.69;107335;1248;59357;-66
2022/06/02 03:40:46;;;;;;;;;;;;;;;16.69;86.47;101114.21;107596;1247;74382;-66
2022/06/02 03:43:30;;;;;;;;;;;;;;;16.73;86.39;101112.91;107522;1247;70192;-68
2022/06/02 03:46:05;;;;;;;;;;;;;;;16.81;85.95;101112.50;107568;1248;67177;-66
2022/06/02 03:48:41;;;;;;;;;;;;;;;16.84;86.22;101113.37;107421;1250;71988;-66
2022/06/02 03:51:19;;;;;;;;;;;;;;;16.97;85.70;101107.50;107419;1248;61333;-67
2022/06/02 03:54:06;;;;;;;;;;;;;;;17.08;85.35;101105.87;107521;1247;60404;-66
2022/06/02 03:56:42;;;;;;;;;;;;;;;17.21;84.94;101105.91;107543;1248;73783;-67
2022/06/02 03:59:33;;;;;;;;;;;;;;;17.32;84.57;101103.04;107403;1247;61182;-66
2022/06/02 04:02:07;;;;;;;;;;;;;;;17.44;84.20;101099.86;107475;1247;71020;-71
2022/06/02 04:04:48;;;;;;;;;;;;;;;17.55;83.77;101099.11;107452;1248;72277;-73
2022/06/02 04:07:17;;;;;;;;;;;;;;;17.69;83.17;101103.77;107424;1247;60839;-66
2022/06/02 04:10:13;;;;;;;;;;;;;;;17.75;82.51;101103.02;107774;1246;59714;-66
2022/06/02 04:16:23;;;;;;;;;;;;;;;17.81;82.76;101102.85;107570;1247;72588;-68
2022/06/02 04:22:10;;;;;;;;;;;;;;;18.04;82.08;101108.53;107163;1248;73676;-67
2022/06/02 04:25:08;;;;;;;;;;;;;;;18.10;81.73;101105.98;107296;1248;59576;-68
2022/06/02 04:27:55;;;;;;;;;;;;;;;18.19;81.57;101101.58;107339;1247;59547;-69
2022/06/02 04:30:51;;;;;;;;;;;;;;;18.29;81.40;101104.81;107384;1247;63626;-68
2022/06/02 04:33:45;;;;;;;;;;;;;;;18.42;81.02;101108.66;107440;1247;72719;-69
2022/06/02 04:36:35;;;;;;;;;;;;;;;18.53;80.64;101112.52;107368;1248;60395;-69
2022/06/02 04:39:12;;;;;;;;;;;;;;;18.60;79.97;101110.17;107436;1248;73527;-69
2022/06/02 04:41:55;;;;;;;;;;;;;;;18.72;79.87;101104.77;107538;1248;59517;-69
2022/06/02 04:44:43;;;;;;;;;;;;;;;18.83;79.31;101104.63;107495;1248;59571;-67
2022/06/02 04:47:23;;;;;;;;;;;;;;;18.88;79.13;101106.05;107414;1247;73661;-72
2022/06/02 04:50:17;;;;;;;;;;;;;;;18.94;78.85;101110.85;107464;1248;72802;-74
2022/06/02 04:52:54;;;;;;;;;;;;;;;19.04;78.41;101115.48;107266;1250;61123;-76
2022/06/02 04:55:37;;;;;;;;;;;;;;;19.11;78.06;101114.63;107305;1247;74488;-75
2022/06/02 04:58:22;;;;;;;;;;;;;;;19.22;77.40;101113.38;107528;1248;63016;-73
2022/06/02 05:01:06;;;;;;;;;;;;;;;19.24;77.61;101110.80;107506;1247;59646;-73
2022/06/02 05:03:46;;;;;;;;;;;;;;;19.27;77.61;101118.45;107594;1246;63793;-75
2022/06/02 05:06:51;;;;;;;;;;;;;;;19.39;76.92;101119.56;107678;1247;71582;-76
2022/06/02 05:09:38;;;;;;;;;;;;;;;19.52;76.76;101118.85;107458;1247;60464;-73
2022/06/02 05:12:32;;;;;;;;;;;;;;;19.66;76.29;101120.46;107517;1248;63793;-74
2022/06/02 05:15:03;;;;;;;;;;;;;;;19.77;76.06;101126.83;107370;1250;62951;-73
2022/06/02 05:18:06;;;;;;;;;;;;;;;19.85;75.91;101128.81;107383;1247;61456;-74
2022/06/02 05:20:53;;;;;;;;;;;;;;;19.96;74.92;101130.16;107381;1247;74877;-75
2022/06/02 05:23:36;;;;;;;;;;;;;;;20.11;74.32;101130.86;107231;1247;72619;-74
2022/06/02 05:26:31;;;;;;;;;;;;;;;20.14;74.26;101125.10;107418;1247;70208;-76
2022/06/02 05:29:06;;;;;;;;;;;;;;;20.20;73.70;101124.58;106904;1249;75085;-77
2022/06/02 05:31:40;;;;;;;;;;;;;;;20.27;73.41;101129.36;107348;1247;59450;-71
2022/06/02 05:34:36;;;;;;;;;;;;;;;20.31;73.74;101127.50;107289;1248;59635;-71
2022/06/02 05:37:10;;;;;;;;;;;;;;;20.48;73.29;101120.63;107419;1247;73857;-71
2022/06/02 05:40:02;;;;;;;;;;;;;;;20.46;73.35;101122.04;107446;1248;61887;-77
2022/06/02 05:43:03;;;;;;;;;;;;;;;20.54;73.32;101122.38;107243;1247;60006;-74
2022/06/02 05:45:41;;;;;;;;;;;;;;;20.72;72.22;101120.85;107135;1247;63293;-77
2022/06/02 05:48:49;;;;;;;;;;;;;;;20.80;71.63;101122.04;107405;1248;59613;-79
2022/06/02 05:51:26;;;;;;;;;;;;;;;20.81;71.62;101117.55;108724;1247;61190;-77
2022/06/02 05:54:04;;;;;;;;;;;;;;;20.88;71.89;101118.48;107495;1247;64193;-80
2022/06/02 05:56:57;;;;;;;;;;;;;;;21.05;70.72;101114.23;107313;1247;71579;-80
2022/06/02 05:59:57;;;;;;;;;;;;;;;21.06;71.13;101119.14;109802;1247;71374;-77
2022/06/02 06:02:29;;;;;;;;;;;;;;;21.22;70.80;101118.15;109761;1247;65912;-78
2022/06/02 06:05:13;;;;;;;;;;;;;;;21.41;70.16;101117.26;107665;1247;61782;-81
2022/06/02 06:08:14;;;;;;;;;;;;;;;21.53;69.60;101115.98;107663;1247;59635;-78
2022/06/02 06:11:04;;;;;;;;;;;;;;;21.66;68.93;101115.71;107633;1247;63694;-80
2022/06/02 06:14:06;;;;;;;;;;;;;;;21.73;68.44;101121.47;107667;1246;72144;-82
2022/06/02 06:16:54;;;;;;;;;;;;;;;21.75;68.25;101120.56;107491;1248;60227;-80
2022/06/02 06:19:24;;;;;;;;;;;;;;;21.87;68.53;101123.02;107666;1247;73089;-79
2022/06/02 06:22:08;;;;;;;;;;;;;;;22.03;67.91;101125.50;107565;1247;62171;-80
2022/06/02 06:24:56;;;;;;;;;;;;;;;22.22;66.87;101125.97;107632;1247;60338;-79
2022/06/02 06:27:51;;;;;;;;;;;;;;;22.31;66.45;101124.28;107623;1247;74275;-81
2022/06/02 06:30:33;;;;;;;;;;;;;;;22.44;66.02;101125.60;107656;1247;73785;-78
2022/06/02 06:33:17;;;;;;;;;;;;;;;22.62;64.94;101127.23;107625;1247;60371;-77
2022/06/02 06:35:54;;;;;;;;;;;;;;;22.69;64.27;101127.62;107627;1247;73861;-81
2022/06/02 06:38:33;;;;;;;;;;;;;;;22.78;63.23;101133.48;107677;1246;58928;-78
2022/06/02 06:41:22;;;;;;;;;;;;;;;22.90;62.88;101132.45;107669;1247;60440;-76
2022/06/02 06:43:55;;;;;;;;;;;;;;;22.97;61.80;101134.45;107869;1247;74630;-76
2022/06/02 06:46:29;;;;;;;;;;;;;;;23.06;62.18;101137.17;107884;1247;72567;-80
2022/06/02 06:49:02;;;;;;;;;;;;;;;23.15;61.88;101135.67;107725;1247;71043;-78
2022/06/02 06:51:53;;;;;;;;;;;;;;;23.23;62.07;101136.11;107614;1245;62926;-79
2022/06/02 06:54:34;;;;;;;;;;;;;;;23.43;61.18;101138.19;107561;1247;60868;-73
2022/06/02 06:57:10;;;;;;;;;;;;;;;23.61;59.69;101137.48;107693;1247;61510;-76
2022/06/02 06:59:44;;;;;;;;;;;;;;;23.70;58.53;101136.48;107603;1247;73895;-77
2022/06/02 07:02:43;;;;;;;;;;;;;;;23.68;59.03;101134.98;107609;1247;62284;-78
2022/06/02 07:05:32;;;;;;;;;;;;;;;23.87;59.04;101132.90;107649;1247;69775;-76
2022/06/02 07:08:24;;;;;;;;;;;;;;;24.01;58.75;101137.87;107602;1247;63463;-76
2022/06/02 07:14:39;;;;;;;;;;;;;;;24.26;57.85;101133.58;107593;1247;61625;-75
2022/06/02 07:18:03;;;;;;;;;;;;;;;24.44;56.78;101129.50;107443;1248;64394;-78
2022/06/02 07:20:54;;;;;;;;;;;;;;;24.53;56.37;101127.69;107488;1247;72284;-73
2022/06/02 07:23:28;;;;;;;;;;;;;;;24.74;56.35;101130.11;107506;1247;70220;-74
2022/06/02 07:26:31;;;;;;;;;;;;;;;24.87;56.76;101128.04;107511;1247;64713;-80
2022/06/02 07:29:17;;;;;;;;;;;;;;;24.98;55.74;101122.11;107611;1247;59565;-76
2022/06/02 07:32:06;;;;;;;;;;;;;;;25.07;55.32;101121.99;107538;1247;60391;-74
2022/06/02 07:35:03;;;;;;;;;;;;;;;25.26;54.63;101120.54;107418;1247;74346;-75
2022/06/02 07:37:54;;;;;;;;;;;;;;;25.41;54.31;101120.84;107500;1247;61342;-75
2022/06/02 07:40:32;;;;;;;;;;;;;;;25.61;54.18;101121.74;107429;1247;70976;-76
2022/06/02 07:43:22;;;;;;;;;;;;;;;25.78;53.34;101123.04;107438;1247;73461;-76
2022/06/02 07:46:06;;;;;;;;;;;;;;;25.84;52.91;101117.38;107374;1247;59547;-75
2022/06/02 07:48:51;;;;;;;;;;;;;;;25.92;51.99;101110.02;107414;1247;60045;-76
2022/06/02 07:51:26;;;;;;;;;;;;;;;26.03;51.81;101117.27;107403;1246;74845;-76
2022/06/02 07:54:15;;;;;;;;;;;;;;;25.99;52.17;101116.63;107436;1247;72949;-75
2022/06/02 07:56:43;;;;;;;;;;;;;;;26.13;51.85;101115.99;107636;1247;71052;-76
2022/06/02 07:59:51;;;;;;;;;;;;;;;26.28;52.25;101119.69;107598;1247;62898;-76
2022/06/02 08:02:44;;;;;;;;;;;;;;;26.49;50.06;101120.27;107354;1247;59568;-78
2022/06/02 08:05:13;;;;;;;;;;;;;;;26.50;50.07;101115.74;107579;1247;60264;-75
2022/06/02 08:07:42;;;;;;;;;;;;;;;26.54;50.43;101110.44;107430;1248;64355;-78
2022/06/02 08:10:32;;;;;;;;;;;;;;;26.70;50.37;101114.66;107634;1247;71123;-80
2022/06/02 08:13:40;;;;;;;;;;;;;;;26.72;49.01;101114.13;107578;1247;60251;-78
2022/06/02 08:16:23;;;;;;;;;;;;;;;26.69;49.39;101112.68;107584;1247;64786;-76
2022/06/02 08:19:06;;;;;;;;;;;;;;;26.98;48.35;101108.48;107605;1247;61407;-75
2022/06/02 08:21:47;;;;;;;;;;;;;;;27.05;48.11;101107.77;107669;1247;59596;-75
2022/06/02 08:24:27;;;;;;;;;;;;;;;27.13;47.69;101107.34;107484;1247;74410;-75
2022/06/02 08:27:04;;;;;;;;;;;;;;;27.18;47.50;101110.14;107631;1247;71611;-75
2022/06/02 08:30:05;;;;;;;;;;;;;;;27.31;47.31;101109.02;107575;1247;71105;-78
2022/06/02 08:32:45;;;;;;;;;;;;;;;27.35;47.55;101108.26;107609;1247;62965;-76
2022/06/02 08:35:50;;;;;;;;;;;;;;;27.48;47.60;101106.97;107587;1247;61226;-74
2022/06/02 08:38:49;;;;;;;;;;;;;;;27.56;46.84;101112.23;107566;1247;60906;-75
2022/06/02 08:41:28;;;;;;;;;;;;;;;27.71;47.10;101106.52;107675;1247;64150;-78
2022/06/02 08:44:29;;;;;;;;;;;;;;;27.98;46.57;101103.70;107667;1247;60851;-78
2022/06/02 08:47:36;;;;;;;;;;;;;;;28.24;45.87;101106.95;107571;1247;59519;-77
2022/06/02 08:50:35;;;;;;;;;;;;;;;28.42;45.63;101100.69;107627;1247;73803;-76
2022/06/02 08:53:45;;;;;;;;;;;;;;;28.53;45.21;101100.95;107741;1247;59492;-72
2022/06/02 08:57:05;;;;;;;;;;;;;;;28.34;45.01;101107.89;107649;1247;60216;-72
2022/06/02 09:00:04;;;;;;;;;;;;;;;28.58;45.09;101110.50;107407;1248;64422;-75
2022/06/02 09:02:55;;;;;;;;;;;;;;;28.81;45.33;101110.55;107325;1247;72452;-78
2022/06/02 09:05:49;;;;;;;;;;;;;;;28.84;44.73;101109.65;107671;1247;59574;-77
2022/06/02 09:08:32;;;;;;;;;;;;;;;28.84;44.74;101104.77;107691;1247;73926;-79
2022/06/02 09:11:38;;;;;;;;;;;;;;;28.91;45.05;101102.81;107675;1247;59523;-74
2022/06/02 09:14:25;;;;;;;;;;;;;;;28.83;44.08;101099.69;107608;1247;59211;-74
2022/06/02 09:16:56;;;;;;;;;;;;;;;28.80;44.46;101093.89;107539;1247;74233;-75
2022/06/02 09:19:38;;;;;;;;;;;;;;;28.97;44.47;101095.30;107654;1247;62045;-75
2022/06/02 09:22:10;;;;;;;;;;;;;;;29.12;44.16;101094.41;107625;1247;60235;-74
2022/06/02 09:24:42;;;;;;;;;;;;;;;29.27;42.81;101089.41;107559;1248;74021;-75
2022/06/02 09:27:49;;;;;;;;;;;;;;;29.23;43.13;101092.48;107648;1247;59569;-75
2022/06/02 09:30:32;;;;;;;;;;;;;;;29.30;42.83;101091.39;107657;1247;61049;-77
2022/06/02 09:33:55;;;;;;;;;;;;;;;29.13;43.64;101094.44;107526;1247;63725;-74
2022/06/02 09:36:27;;;;;;;;;;;;;;;29.10;43.84;101087.15;107676;1247;61662;-78
2022/06/02 09:38:59;;;;;;;;;;;;;;;29.14;42.87;101085.79;107686;1247;59955;-79
2022/06/02 09:41:46;;;;;;;;;;;;;;;28.93;42.68;101084.13;107657;1248;64199;-76
2022/06/02 09:44:49;;;;;;;;;;;;;;;28.86;43.44;101080.10;107813;1247;61370;-78
2022/06/02 09:47:55;;;;;;;;;;;;;;;29.30;43.13;101074.42;107384;1248;62131;-76
2022/06/02 09:50:29;;;;;;;;;;;;;;;29.64;43.11;101071.52;107649;1247;73997;-77
2022/06/02 09:53:11;;;;;;;;;;;;;;;29.93;41.72;101072.06;107807;1247;72526;-77
2022/06/02 09:55:58;;;;;;;;;;;;;;;30.25;39.83;101070.85;107725;1247;71189;-81
2022/06/02 09:59:01;;;;;;;;;;;;;;;30.61;39.64;101068.63;107705;1247;62827;-75
2022/06/02 10:01:53;;;;;;;;;;;;;;;30.79;36.81;101069.11;107702;1247;58551;-76
2022/06/02 10:04:59;;;;;;;;;;;;;;;30.74;35.83;101061.95;107868;1247;60410;-78
2022/06/02 10:07:43;;;;;;;;;;;;;;;31.06;36.04;101059.17;107714;1247;74529;-78
2022/06/02 10:10:23;;;;;;;;;;;;;;;31.36;35.48;101060.36;107671;1247;71852;-78
2022/06/02 10:12:58;;;;;;;;;;;;;;;31.49;35.49;101058.35;107787;1247;60354;-81
2022/06/02 10:16:14;;;;;;;;;;;;;;;31.59;35.54;101058.09;107598;1247;73895;-77
2022/06/02 10:18:53;;;;;;;;;;;;;;;31.53;34.42;101051.57;107607;1247;59566;-81
2022/06/02 10:21:44;;;;;;;;;;;;;;;31.74;35.49;101051.48;107648;1247;60341;-78
2022/06/02 10:24:51;;;;;;;;;;;;;;;31.79;34.89;101043.67;107613;1247;72778;-78
2022/06/02 10:28:04;;;;;;;;;;;;;;;31.51;34.77;101047.52;107610;1247;61486;-76
2022/06/02 10:30:57;;;;;;;;;;;;;;;31.67;34.36;101043.66;107602;1247;70769;-79
2022/06/02 10:33:36;;;;;;;;;;;;;;;32.16;33.78;101043.21;107596;1247;63027;-78
2022/06/02 10:36:32;;;;;;;;;;;;;;;32.75;32.52;101046.24;107568;1247;59643;-75
2022/06/02 10:39:11;;;;;;;;;;;;;;;32.88;32.54;101036.24;107646;1246;59649;-75
2022/06/02 10:42:06;;;;;;;;;;;;;;;32.51;32.04;101038.05;107529;1246;74782;-74
2022/06/02 10:44:56;;;;;;;;;;;;;;;32.67;31.36;101036.32;107537;1247;72697;-77
2022/06/02 10:47:53;;;;;;;;;;;;;;;32.72;31.36;101031.20;107627;1247;70463;-78
2022/06/02 10:50:29;;;;;;;;;;;;;;;32.00;31.90;101028.95;107662;1246;64494;-78
2022/06/02 10:53:12;;;;;;;;;;;;;;;32.33;32.05;101024.77;107617;1247;61207;-78
2022/06/02 10:56:11;;;;;;;;;;;;;;;32.56;32.27;101023.14;107462;1248;58612;-76
2022/06/02 10:59:01;;;;;;;;;;;;;;;33.42;31.13;101022.83;107609;1247;63777;-76
2022/06/02 11:01:57;;;;;;;;;;;;;;;34.02;30.08;101019.78;107508;1247;72593;-79
2022/06/02 11:04:51;;;;;;;;;;;;;;;34.62;29.37;101014.21;107522;1247;71490;-76
2022/06/02 11:07:39;;;;;;;;;;;;;;;34.84;28.96;101009.73;107611;1247;66424;-77
2022/06/02 11:10:11;;;;;;;;;;;;;;;34.31;29.33;101009.14;107608;1247;60496;-79
2022/06/02 11:13:17;;;;;;;;;;;;;;;33.59;29.63;101005.33;107662;1247;61433;-79
2022/06/02 11:16:19;;;;;;;;;;;;;;;34.17;28.82;101010.89;107551;1247;75685;-72
2022/06/02 11:19:14;;;;;;;;;;;;;;;34.51;28.43;101003.14;107591;1247;62354;-75
2022/06/02 11:22:21;;;;;;;;;;;;;;;34.68;27.67;101002.77;107562;1247;59251;-82
2022/06/02 11:25:40;;;;;;;;;;;;;;;34.73;27.83;100999.79;107514;1247;65220;-81
2022/06/02 11:28:47;;;;;;;;;;;;;;;34.37;28.77;100991.66;107657;1247;59555;-83
2022/06/02 11:31:45;;;;;;;;;;;;;;;34.39;29.26;100986.64;107632;1247;60202;-80
2022/06/02 11:34:53;;;;;;;;;;;;;;;35.20;27.53;100985.19;107640;1247;64361;-83
2022/06/02 11:37:44;;;;;;;;;;;;;;;36.15;26.00;100978.11;107536;1247;72334;-79
2022/06/02 11:40:57;;;;;;;;;;;;;;;35.97;26.49;100979.54;107624;1247;70206;-79
2022/06/02 11:43:44;;;;;;;;;;;;;;;35.64;26.60;100978.61;107624;1245;64126;-78
2022/06/02 11:46:38;;;;;;;;;;;;;;;34.82;27.97;100972.75;107659;1246;60878;-79
2022/06/02 11:49:41;;;;;;;;;;;;;;;34.85;27.70;100964.14;107191;1247;587698;-78
2022/06/02 11:52:31;;;;;;;;;;;;;;;34.01;29.07;100963.43;107448;1247;63890;-80
2022/06/02 11:55:38;;;;;;;;;;;;;;;33.87;29.51;100962.25;107664;1246;72622;-77
2022/06/02 11:58:34;;;;;;;;;;;;;;;34.43;28.70;100958.79;107677;1247;71617;-79
2022/06/02 12:01:23;;;;;;;;;;;;;;;35.35;27.80;100957.71;107814;1247;63674;-79
2022/06/02 12:04:22;;;;;;;;;;;;;;;35.98;26.73;100951.69;107678;1247;59592;-76
2022/06/02 12:07:15;;;;;;;;;;;;;;;36.33;26.01;100947.48;107616;1247;59626;-73
2022/06/02 12:10:12;;;;;;;;;;;;;;;36.02;25.62;100945.08;107560;1249;63867;-78
2022/06/02 12:13:00;;;;;;;;;;;;;;;36.36;25.90;100942.81;107678;1247;72605;-80
2022/06/02 12:15:55;;;;;;;;;;;;;;;36.95;25.17;100941.28;107715;1247;59514;-81
2022/06/02 12:18:42;;;;;;;;;;;;;;;36.40;25.26;100935.73;107690;1247;64916;-78
2022/06/02 12:21:37;;;;;;;;;;;;;;;37.26;24.29;100929.10;107720;1247;61469;-82
2022/06/02 12:24:42;;;;;;;;;;;;;;;37.88;24.31;100925.55;107573;1247;61470;-76
2022/06/02 12:27:19;;;;;;;;;;;;;;;38.27;22.04;100922.73;107677;1246;75635;-76
2022/06/02 12:30:06;;;;;;;;;;;;;;;38.05;22.09;100918.13;107611;1247;63869;-78
2022/06/02 12:33:03;;;;;;;;;;;;;;;37.17;22.97;100915.48;107644;1247;62308;-81
2022/06/02 12:35:54;;;;;;;;;;;;;;;37.55;22.64;100916.23;107490;1247;62796;-76
2022/06/02 12:38:59;;;;;;;;;;;;;;;38.81;21.58;100913.75;107580;1247;60903;-79
2022/06/02 12:41:36;;;;;;;;;;;;;;;39.64;20.93;100913.57;107645;1247;60979;-78
2022/06/02 12:44:17;;;;;;;;;;;;;;;40.73;19.27;100913.55;107677;1247;63803;-77
2022/06/02 12:47:04;;;;;;;;;;;;;;;38.94;20.55;100907.61;107681;1247;72257;-79
2022/06/02 12:50:04;;;;;;;;;;;;;;;38.25;21.55;100900.92;107635;1247;60406;-75
2022/06/02 12:52:47;;;;;;;;;;;;;;;37.82;22.19;100899.27;107686;1247;64180;-78
2022/06/02 12:55:43;;;;;;;;;;;;;;;38.45;22.10;100902.66;107460;1247;61631;-79
2022/06/02 12:58:39;;;;;;;;;;;;;;;40.49;19.38;100901.14;107553;1247;61765;-77
2022/06/02 13:01:39;;;;;;;;;;;;;;;40.47;19.02;100902.00;107485;1248;63499;-79
2022/06/02 13:04:34;;;;;;;;;;;;;;;39.50;20.47;100899.10;107652;1247;70503;-78
2022/06/02 13:07:31;;;;;;;;;;;;;;;40.30;19.21;100900.08;107640;1247;60625;-79
2022/06/02 13:10:15;;;;;;;;;;;;;;;39.50;19.98;100893.48;107771;1247;63755;-78
2022/06/02 13:13:18;;;;;;;;;;;;;;;37.80;21.62;100891.65;107463;1248;59688;-80
2022/06/02 13:16:06;;;;;;;;;;;;;;;36.64;22.78;100892.38;107612;1246;59482;-83
2022/06/02 13:19:03;;;;;;;;;;;;;;;37.06;22.49;100896.44;107673;1247;63777;-79
2022/06/02 13:21:51;;;;;;;;;;;;;;;36.95;22.41;100899.66;107689;1247;71299;-79
2022/06/02 13:24:54;;;;;;;;;;;;;;;35.37;24.62;100901.16;107681;1247;59701;-82
2022/06/02 13:27:59;;;;;;;;;;;;;;;34.93;25.63;100896.32;107461;1247;63323;-81
2022/06/02 13:30:37;;;;;;;;;;;;;;;34.43;25.89;100894.80;107702;1247;59604;-83
2022/06/02 13:33:18;;;;;;;;;;;;;;;34.54;26.40;100889.35;107665;1247;59614;-79
2022/06/02 13:36:19;;;;;;;;;;;;;;;34.69;25.80;100885.23;107526;1247;75056;-78
2022/06/02 13:38:56;;;;;;;;;;;;;;;35.59;24.94;100882.70;107777;1247;71208;-77
2022/06/02 13:41:37;;;;;;;;;;;;;;;36.07;24.46;100881.61;107759;1247;60418;-81
2022/06/02 13:44:56;;;;;;;;;;;;;;;36.32;24.24;100877.19;107755;1247;63212;-77
2022/06/02 13:47:37;;;;;;;;;;;;;;;36.09;24.54;100872.42;107462;1247;59613;-81
2022/06/02 13:50:15;;;;;;;;;;;;;;;35.79;25.23;100869.93;107695;1247;62761;-82
2022/06/02 13:53:05;;;;;;;;;;;;;;;35.64;25.47;100868.54;107565;1247;75136;-80
2022/06/02 13:59:04;;;;;;;;;;;;;;;34.65;26.03;100866.95;107107;1247;60637;-77
2022/06/02 14:02:20;;;;;;;;;;;;;;;34.54;26.00;100863.16;107107;1247;74308;-79
2022/06/02 14:05:18;;;;;;;;;;;;;;;34.62;26.10;100865.96;107627;1247;59524;-80
2022/06/02 14:08:08;;;;;;;;;;;;;;;34.74;25.70;100865.90;107383;1247;59235;-82
2022/06/02 14:10:54;;;;;;;;;;;;;;;35.56;24.49;100862.77;107718;1247;74649;-83
2022/06/02 14:13:36;;;;;;;;;;;;;;;36.85;23.49;100864.30;107594;1249;62104;-78
2022/06/02 14:16:18;;;;;;;;;;;;;;;38.63;21.01;100860.90;107671;1247;70237;-79
2022/06/02 14:19:34;;;;;;;;;;;;;;;39.25;20.35;100866.33;107831;1247;62812;-76
2022/06/02 14:22:03;;;;;;;;;;;;;;;38.66;21.09;100871.50;107635;1247;61249;-77
2022/06/02 14:24:43;;;;;;;;;;;;;;;38.03;21.92;100876.30;107670;1247;60947;-77
2022/06/02 14:27:34;;;;;;;;;;;;;;;36.28;24.01;100881.89;107682;1247;65094;-74
2022/06/02 14:30:03;;;;;;;;;;;;;;;35.13;25.59;100879.21;107500;1246;72281;-72
2022/06/02 14:32:48;;;;;;;;;;;;;;;34.92;26.13;100872.45;107602;1247;70912;-75